Manhattan Regional Airport Manhattan US
ICAO: KMHK
IATA: MHK
Category: Medium
Scheduled Services: Yes

Elevation: 1057 ft
TransAlt. 18000 ft.

Airport Communications:
KANSAS CITY CNTR:127.35
ASOS:119.075
CTAF:118.55
GND:121.85
WICHITA RDO:122.65
TWR:118.55

KMHK Zoom In..

If you have problems with the map follow the link
https://www.worldairports.se/pages/airport.php?
ICAO=KMHK

Runways:

(A) RW 03 length 7000 ft width 150 ft
ILS 111.30 / hdg 36

(B) RW 13 length 5000 ft width 75 ft
---- / hdg 138

(C) RW 21 length 7000 ft width 150 ft
---- / hdg 216

(D) RW 31 length 5000 ft width 75 ft
---- / hdg 318

Location; KMHK
Day. 14 / Time. 17.59 Zulu
* Altimeter: 30.01
* Temperature: 02° c. 35.6°f.
* Wind from: 030° Speed 07 kn.
Dewpoint: -06° c.
Visibility: 10 Statute Miles.
Clouds: Scattered 2400 ft.

KMHK 141759Z 03007KT 10SM SCT024 02/M06 A3001 RMK AO2 T00171056


Wind From 030°
Speed 07 kn.

 
 
jpsmedia worldairports.se 2019   terms of use